sensor_id;sensor_type;location;lat;lon;timestamp;P1;durP1;ratioP1;P2;durP2;ratioP2
59273;SDS011;45044;41.572;24.730;2023-02-10T00:01:25;61.10;;;30.67;;
59273;SDS011;45044;41.572;24.730;2023-02-10T00:03:53;51.90;;;26.97;;
59273;SDS011;45044;41.572;24.730;2023-02-10T00:06:20;76.70;;;35.97;;
59273;SDS011;45044;41.572;24.730;2023-02-10T00:08:51;49.57;;;29.20;;
59273;SDS011;45044;41.572;24.730;2023-02-10T00:11:18;48.17;;;25.37;;
59273;SDS011;45044;41.572;24.730;2023-02-10T00:13:45;51.03;;;27.30;;
59273;SDS011;45044;41.572;24.730;2023-02-10T00:16:14;38.33;;;20.57;;
59273;SDS011;45044;41.572;24.730;2023-02-10T00:18:41;40.57;;;22.67;;
59273;SDS011;45044;41.572;24.730;2023-02-10T00:21:15;54.30;;;27.97;;
59273;SDS011;45044;41.572;24.730;2023-02-10T00:23:43;41.10;;;21.83;;
59273;SDS011;45044;41.572;24.730;2023-02-10T00:26:10;48.20;;;24.30;;
59273;SDS011;45044;41.572;24.730;2023-02-10T00:28:39;47.13;;;25.10;;
59273;SDS011;45044;41.572;24.730;2023-02-10T00:31:06;43.87;;;21.47;;
59273;SDS011;45044;41.572;24.730;2023-02-10T00:33:35;36.57;;;18.80;;
59273;SDS011;45044;41.572;24.730;2023-02-10T00:36:03;46.97;;;24.43;;
59273;SDS011;45044;41.572;24.730;2023-02-10T00:38:31;46.03;;;22.97;;
59273;SDS011;45044;41.572;24.730;2023-02-10T00:41:05;52.53;;;26.43;;
59273;SDS011;45044;41.572;24.730;2023-02-10T00:43:33;68.77;;;31.13;;
59273;SDS011;45044;41.572;24.730;2023-02-10T00:46:00;68.47;;;34.00;;
59273;SDS011;45044;41.572;24.730;2023-02-10T00:48:27;56.20;;;30.73;;
59273;SDS011;45044;41.572;24.730;2023-02-10T00:50:53;73.50;;;38.70;;
59273;SDS011;45044;41.572;24.730;2023-02-10T00:53:20;59.83;;;31.37;;
59273;SDS011;45044;41.572;24.730;2023-02-10T00:55:47;49.13;;;25.77;;
59273;SDS011;45044;41.572;24.730;2023-02-10T00:58:15;48.33;;;26.07;;
59273;SDS011;45044;41.572;24.730;2023-02-10T01:00:41;46.60;;;24.27;;
59273;SDS011;45044;41.572;24.730;2023-02-10T01:03:08;41.60;;;21.17;;
59273;SDS011;45044;41.572;24.730;2023-02-10T01:05:36;42.23;;;19.20;;
59273;SDS011;45044;41.572;24.730;2023-02-10T01:08:03;33.73;;;16.20;;
59273;SDS011;45044;41.572;24.730;2023-02-10T01:10:31;29.30;;;15.07;;
59273;SDS011;45044;41.572;24.730;2023-02-10T01:13:01;37.13;;;17.90;;
59273;SDS011;45044;41.572;24.730;2023-02-10T01:15:30;44.47;;;20.77;;
59273;SDS011;45044;41.572;24.730;2023-02-10T01:17:57;45.13;;;21.17;;
59273;SDS011;45044;41.572;24.730;2023-02-10T01:20:24;42.57;;;23.37;;
59273;SDS011;45044;41.572;24.730;2023-02-10T01:22:52;44.87;;;21.33;;
59273;SDS011;45044;41.572;24.730;2023-02-10T01:25:19;46.83;;;23.50;;
59273;SDS011;45044;41.572;24.730;2023-02-10T01:27:46;44.73;;;22.27;;
59273;SDS011;45044;41.572;24.730;2023-02-10T01:30:12;49.97;;;26.13;;
59273;SDS011;45044;41.572;24.730;2023-02-10T01:32:39;52.43;;;26.30;;
59273;SDS011;45044;41.572;24.730;2023-02-10T01:35:06;50.90;;;24.43;;
59273;SDS011;45044;41.572;24.730;2023-02-10T01:37:33;41.07;;;21.13;;
59273;SDS011;45044;41.572;24.730;2023-02-10T01:40:02;48.20;;;25.17;;
59273;SDS011;45044;41.572;24.730;2023-02-10T01:42:30;38.03;;;21.20;;
59273;SDS011;45044;41.572;24.730;2023-02-10T01:47:59;44.53;;;23.60;;
59273;SDS011;45044;41.572;24.730;2023-02-10T01:50:28;41.53;;;22.33;;
59273;SDS011;45044;41.572;24.730;2023-02-10T01:52:58;42.33;;;19.93;;
59273;SDS011;45044;41.572;24.730;2023-02-10T01:55:26;45.07;;;22.73;;
59273;SDS011;45044;41.572;24.730;2023-02-10T02:00:29;48.07;;;20.47;;
59273;SDS011;45044;41.572;24.730;2023-02-10T02:02:55;35.13;;;18.17;;
59273;SDS011;45044;41.572;24.730;2023-02-10T02:05:33;36.67;;;17.33;;
59273;SDS011;45044;41.572;24.730;2023-02-10T02:08:07;36.47;;;19.37;;
59273;SDS011;45044;41.572;24.730;2023-02-10T02:10:43;64.67;;;30.67;;
59273;SDS011;45044;41.572;24.730;2023-02-10T02:13:15;70.50;;;31.53;;
59273;SDS011;45044;41.572;24.730;2023-02-10T02:15:55;51.17;;;28.43;;
59273;SDS011;45044;41.572;24.730;2023-02-10T02:18:47;38.80;;;20.87;;
59273;SDS011;45044;41.572;24.730;2023-02-10T02:32:19;43.47;;;22.50;;
59273;SDS011;45044;41.572;24.730;2023-02-10T02:40:00;54.60;;;28.80;;
59273;SDS011;45044;41.572;24.730;2023-02-10T02:42:28;46.07;;;23.13;;
59273;SDS011;45044;41.572;24.730;2023-02-10T02:50:21;58.03;;;33.03;;
59273;SDS011;45044;41.572;24.730;2023-02-10T02:59:03;45.30;;;23.97;;
59273;SDS011;45044;41.572;24.730;2023-02-10T03:01:43;54.80;;;28.47;;
59273;SDS011;45044;41.572;24.730;2023-02-10T03:04:18;38.97;;;21.80;;
59273;SDS011;45044;41.572;24.730;2023-02-10T03:06:45;42.23;;;21.23;;
59273;SDS011;45044;41.572;24.730;2023-02-10T03:09:12;38.80;;;23.23;;
59273;SDS011;45044;41.572;24.730;2023-02-10T03:11:39;40.00;;;20.10;;
59273;SDS011;45044;41.572;24.730;2023-02-10T03:14:06;37.30;;;20.10;;
59273;SDS011;45044;41.572;24.730;2023-02-10T03:16:33;35.33;;;20.10;;
59273;SDS011;45044;41.572;24.730;2023-02-10T03:18:59;32.77;;;17.73;;
59273;SDS011;45044;41.572;24.730;2023-02-10T03:21:26;37.90;;;19.47;;
59273;SDS011;45044;41.572;24.730;2023-02-10T03:23:53;32.97;;;18.30;;
59273;SDS011;45044;41.572;24.730;2023-02-10T03:26:20;28.53;;;17.07;;
59273;SDS011;45044;41.572;24.730;2023-02-10T03:28:46;31.93;;;19.80;;
59273;SDS011;45044;41.572;24.730;2023-02-10T03:31:17;31.63;;;21.00;;
59273;SDS011;45044;41.572;24.730;2023-02-10T03:33:44;33.17;;;22.23;;
59273;SDS011;45044;41.572;24.730;2023-02-10T03:36:11;23.57;;;13.37;;
59273;SDS011;45044;41.572;24.730;2023-02-10T03:38:38;24.47;;;12.83;;
59273;SDS011;45044;41.572;24.730;2023-02-10T03:41:05;34.03;;;16.10;;
59273;SDS011;45044;41.572;24.730;2023-02-10T03:43:32;40.73;;;17.57;;
59273;SDS011;45044;41.572;24.730;2023-02-10T03:45:59;37.10;;;18.90;;
59273;SDS011;45044;41.572;24.730;2023-02-10T03:48:30;43.83;;;19.60;;
59273;SDS011;45044;41.572;24.730;2023-02-10T03:51:00;71.30;;;29.43;;
59273;SDS011;45044;41.572;24.730;2023-02-10T03:53:28;45.57;;;22.93;;
59273;SDS011;45044;41.572;24.730;2023-02-10T03:55:56;212.63;;;74.40;;
59273;SDS011;45044;41.572;24.730;2023-02-10T03:58:24;54.73;;;24.73;;
59273;SDS011;45044;41.572;24.730;2023-02-10T04:00:51;31.03;;;14.93;;
59273;SDS011;45044;41.572;24.730;2023-02-10T04:03:18;38.10;;;19.73;;
59273;SDS011;45044;41.572;24.730;2023-02-10T04:05:45;36.40;;;19.03;;
59273;SDS011;45044;41.572;24.730;2023-02-10T04:08:12;37.17;;;19.83;;
59273;SDS011;45044;41.572;24.730;2023-02-10T04:10:39;39.27;;;21.03;;
59273;SDS011;45044;41.572;24.730;2023-02-10T04:13:06;38.50;;;20.70;;
59273;SDS011;45044;41.572;24.730;2023-02-10T04:15:33;42.57;;;19.77;;
59273;SDS011;45044;41.572;24.730;2023-02-10T04:17:59;112.83;;;42.87;;
59273;SDS011;45044;41.572;24.730;2023-02-10T04:20:26;73.43;;;32.30;;
59273;SDS011;45044;41.572;24.730;2023-02-10T04:22:53;54.07;;;25.43;;
59273;SDS011;45044;41.572;24.730;2023-02-10T04:25:20;50.13;;;23.00;;
59273;SDS011;45044;41.572;24.730;2023-02-10T04:27:46;41.70;;;21.47;;
59273;SDS011;45044;41.572;24.730;2023-02-10T04:30:13;91.97;;;35.67;;
59273;SDS011;45044;41.572;24.730;2023-02-10T04:32:40;38.37;;;17.70;;
59273;SDS011;45044;41.572;24.730;2023-02-10T04:35:07;52.17;;;21.03;;
59273;SDS011;45044;41.572;24.730;2023-02-10T04:37:34;56.90;;;25.17;;
59273;SDS011;45044;41.572;24.730;2023-02-10T04:40:00;43.40;;;18.73;;
59273;SDS011;45044;41.572;24.730;2023-02-10T04:42:27;44.77;;;20.33;;
59273;SDS011;45044;41.572;24.730;2023-02-10T04:44:57;45.30;;;21.80;;
59273;SDS011;45044;41.572;24.730;2023-02-10T04:47:28;41.63;;;20.37;;
59273;SDS011;45044;41.572;24.730;2023-02-10T04:49:55;38.23;;;19.77;;
59273;SDS011;45044;41.572;24.730;2023-02-10T04:52:21;35.17;;;18.37;;
59273;SDS011;45044;41.572;24.730;2023-02-10T04:54:49;33.70;;;17.13;;
59273;SDS011;45044;41.572;24.730;2023-02-10T04:57:15;73.03;;;31.23;;
59273;SDS011;45044;41.572;24.730;2023-02-10T04:59:42;31.33;;;17.00;;
59273;SDS011;45044;41.572;24.730;2023-02-10T05:02:09;29.70;;;16.17;;
59273;SDS011;45044;41.572;24.730;2023-02-10T05:04:36;36.50;;;19.00;;
59273;SDS011;45044;41.572;24.730;2023-02-10T05:07:02;38.80;;;19.93;;
59273;SDS011;45044;41.572;24.730;2023-02-10T05:09:29;36.77;;;19.80;;
59273;SDS011;45044;41.572;24.730;2023-02-10T05:11:56;81.10;;;39.20;;
59273;SDS011;45044;41.572;24.730;2023-02-10T05:14:23;58.17;;;32.00;;
59273;SDS011;45044;41.572;24.730;2023-02-10T05:16:50;59.97;;;34.13;;
59273;SDS011;45044;41.572;24.730;2023-02-10T05:19:16;72.23;;;37.67;;
59273;SDS011;45044;41.572;24.730;2023-02-10T05:21:43;72.20;;;36.63;;
59273;SDS011;45044;41.572;24.730;2023-02-10T05:24:10;67.17;;;32.17;;
59273;SDS011;45044;41.572;24.730;2023-02-10T05:26:37;57.80;;;29.77;;
59273;SDS011;45044;41.572;24.730;2023-02-10T05:29:04;62.93;;;31.23;;
59273;SDS011;45044;41.572;24.730;2023-02-10T05:31:30;59.13;;;26.83;;
59273;SDS011;45044;41.572;24.730;2023-02-10T05:33:57;47.30;;;25.17;;
59273;SDS011;45044;41.572;24.730;2023-02-10T05:36:24;101.97;;;43.87;;
59273;SDS011;45044;41.572;24.730;2023-02-10T05:38:53;77.97;;;37.63;;
59273;SDS011;45044;41.572;24.730;2023-02-10T05:41:38;49.40;;;25.47;;
59273;SDS011;45044;41.572;24.730;2023-02-10T05:44:05;40.87;;;19.90;;
59273;SDS011;45044;41.572;24.730;2023-02-10T05:46:32;33.90;;;19.23;;
59273;SDS011;45044;41.572;24.730;2023-02-10T05:48:58;40.70;;;19.73;;
59273;SDS011;45044;41.572;24.730;2023-02-10T05:51:25;43.97;;;23.00;;
59273;SDS011;45044;41.572;24.730;2023-02-10T05:53:52;41.93;;;20.07;;
59273;SDS011;45044;41.572;24.730;2023-02-10T05:56:19;43.83;;;23.70;;
59273;SDS011;45044;41.572;24.730;2023-02-10T05:58:47;42.77;;;25.53;;
59273;SDS011;45044;41.572;24.730;2023-02-10T06:01:13;48.10;;;27.33;;
59273;SDS011;45044;41.572;24.730;2023-02-10T06:03:40;53.53;;;29.37;;
59273;SDS011;45044;41.572;24.730;2023-02-10T06:06:07;62.97;;;30.93;;
59273;SDS011;45044;41.572;24.730;2023-02-10T06:08:34;66.10;;;37.80;;
59273;SDS011;45044;41.572;24.730;2023-02-10T06:11:00;73.13;;;41.23;;
59273;SDS011;45044;41.572;24.730;2023-02-10T06:13:27;86.23;;;48.57;;
59273;SDS011;45044;41.572;24.730;2023-02-10T06:15:55;108.00;;;56.10;;
59273;SDS011;45044;41.572;24.730;2023-02-10T06:18:22;193.60;;;90.43;;
59273;SDS011;45044;41.572;24.730;2023-02-10T06:20:48;215.17;;;97.47;;
59273;SDS011;45044;41.572;24.730;2023-02-10T06:23:17;241.33;;;107.40;;
59273;SDS011;45044;41.572;24.730;2023-02-10T06:25:44;233.50;;;105.50;;
59273;SDS011;45044;41.572;24.730;2023-02-10T06:28:11;180.40;;;86.57;;
59273;SDS011;45044;41.572;24.730;2023-02-10T06:30:38;137.77;;;64.40;;
59273;SDS011;45044;41.572;24.730;2023-02-10T06:33:05;158.17;;;74.07;;
59273;SDS011;45044;41.572;24.730;2023-02-10T06:35:32;130.93;;;62.03;;
59273;SDS011;45044;41.572;24.730;2023-02-10T06:37:59;193.10;;;86.10;;
59273;SDS011;45044;41.572;24.730;2023-02-10T06:40:25;184.97;;;82.10;;
59273;SDS011;45044;41.572;24.730;2023-02-10T06:42:52;146.77;;;72.03;;
59273;SDS011;45044;41.572;24.730;2023-02-10T06:45:19;129.07;;;63.20;;
59273;SDS011;45044;41.572;24.730;2023-02-10T06:47:45;120.70;;;59.73;;
59273;SDS011;45044;41.572;24.730;2023-02-10T06:50:12;116.23;;;60.33;;
59273;SDS011;45044;41.572;24.730;2023-02-10T06:52:40;116.10;;;62.10;;
59273;SDS011;45044;41.572;24.730;2023-02-10T06:55:06;115.73;;;59.20;;
59273;SDS011;45044;41.572;24.730;2023-02-10T06:57:34;176.30;;;90.20;;
59273;SDS011;45044;41.572;24.730;2023-02-10T07:00:11;163.97;;;92.63;;
59273;SDS011;45044;41.572;24.730;2023-02-10T07:02:41;178.33;;;100.87;;
59273;SDS011;45044;41.572;24.730;2023-02-10T07:05:08;165.07;;;97.30;;
59273;SDS011;45044;41.572;24.730;2023-02-10T07:07:36;181.23;;;102.53;;
59273;SDS011;45044;41.572;24.730;2023-02-10T07:10:04;169.10;;;96.40;;
59273;SDS011;45044;41.572;24.730;2023-02-10T07:12:31;155.73;;;89.43;;
59273;SDS011;45044;41.572;24.730;2023-02-10T07:14:58;144.77;;;85.07;;
59273;SDS011;45044;41.572;24.730;2023-02-10T07:17:25;137.87;;;80.03;;
59273;SDS011;45044;41.572;24.730;2023-02-10T07:19:51;140.13;;;77.50;;
59273;SDS011;45044;41.572;24.730;2023-02-10T07:22:18;126.37;;;67.57;;
59273;SDS011;45044;41.572;24.730;2023-02-10T07:24:46;135.63;;;76.30;;
59273;SDS011;45044;41.572;24.730;2023-02-10T07:27:13;136.97;;;76.17;;
59273;SDS011;45044;41.572;24.730;2023-02-10T07:29:40;120.83;;;71.30;;
59273;SDS011;45044;41.572;24.730;2023-02-10T07:32:07;123.97;;;78.27;;
59273;SDS011;45044;41.572;24.730;2023-02-10T07:34:40;103.73;;;62.30;;
59273;SDS011;45044;41.572;24.730;2023-02-10T07:37:07;110.37;;;60.67;;
59273;SDS011;45044;41.572;24.730;2023-02-10T07:39:34;87.00;;;50.90;;
59273;SDS011;45044;41.572;24.730;2023-02-10T07:42:00;105.87;;;58.37;;
59273;SDS011;45044;41.572;24.730;2023-02-10T07:44:28;63.40;;;42.10;;
59273;SDS011;45044;41.572;24.730;2023-02-10T07:46:55;50.80;;;34.63;;
59273;SDS011;45044;41.572;24.730;2023-02-10T07:49:22;64.37;;;42.87;;
59273;SDS011;45044;41.572;24.730;2023-02-10T07:51:49;84.73;;;51.17;;
59273;SDS011;45044;41.572;24.730;2023-02-10T07:54:15;71.17;;;45.40;;
59273;SDS011;45044;41.572;24.730;2023-02-10T07:56:42;63.23;;;41.50;;
59273;SDS011;45044;41.572;24.730;2023-02-10T07:59:09;63.33;;;42.07;;
59273;SDS011;45044;41.572;24.730;2023-02-10T08:01:35;42.03;;;27.77;;
59273;SDS011;45044;41.572;24.730;2023-02-10T08:04:11;47.85;;;28.60;;
59273;SDS011;45044;41.572;24.730;2023-02-10T08:06:38;39.00;;;27.23;;
59273;SDS011;45044;41.572;24.730;2023-02-10T08:09:05;38.25;;;26.25;;
59273;SDS011;45044;41.572;24.730;2023-02-10T08:11:32;33.45;;;23.60;;
59273;SDS011;45044;41.572;24.730;2023-02-10T08:14:01;37.80;;;24.00;;
59273;SDS011;45044;41.572;24.730;2023-02-10T08:16:28;33.10;;;21.75;;
59273;SDS011;45044;41.572;24.730;2023-02-10T08:18:55;32.08;;;21.42;;
59273;SDS011;45044;41.572;24.730;2023-02-10T08:21:24;38.75;;;26.58;;
59273;SDS011;45044;41.572;24.730;2023-02-10T08:23:52;37.97;;;26.15;;
59273;SDS011;45044;41.572;24.730;2023-02-10T08:26:21;38.45;;;25.70;;
59273;SDS011;45044;41.572;24.730;2023-02-10T08:28:49;34.40;;;24.27;;
59273;SDS011;45044;41.572;24.730;2023-02-10T08:31:17;35.28;;;26.33;;
59273;SDS011;45044;41.572;24.730;2023-02-10T08:33:43;35.60;;;25.73;;
59273;SDS011;45044;41.572;24.730;2023-02-10T08:36:13;32.45;;;23.13;;
59273;SDS011;45044;41.572;24.730;2023-02-10T08:38:41;38.38;;;25.85;;
59273;SDS011;45044;41.572;24.730;2023-02-10T08:41:08;39.08;;;26.17;;
59273;SDS011;45044;41.572;24.730;2023-02-10T08:43:35;36.85;;;26.70;;
59273;SDS011;45044;41.572;24.730;2023-02-10T08:46:02;39.50;;;25.33;;
59273;SDS011;45044;41.572;24.730;2023-02-10T08:48:30;35.20;;;21.90;;
59273;SDS011;45044;41.572;24.730;2023-02-10T08:51:00;24.45;;;16.25;;
59273;SDS011;45044;41.572;24.730;2023-02-10T08:53:32;26.17;;;15.98;;
59273;SDS011;45044;41.572;24.730;2023-02-10T08:55:59;24.70;;;17.73;;
59273;SDS011;45044;41.572;24.730;2023-02-10T08:58:32;16.25;;;9.73;;
59273;SDS011;45044;41.572;24.730;2023-02-10T09:00:58;13.25;;;8.07;;
59273;SDS011;45044;41.572;24.730;2023-02-10T09:03:25;18.98;;;11.90;;
59273;SDS011;45044;41.572;24.730;2023-02-10T09:05:53;16.25;;;10.23;;
59273;SDS011;45044;41.572;24.730;2023-02-10T09:08:20;14.18;;;8.02;;
59273;SDS011;45044;41.572;24.730;2023-02-10T09:10:48;20.38;;;10.85;;
59273;SDS011;45044;41.572;24.730;2023-02-10T09:13:15;18.08;;;9.93;;
59273;SDS011;45044;41.572;24.730;2023-02-10T09:15:42;10.13;;;7.03;;
59273;SDS011;45044;41.572;24.730;2023-02-10T09:18:09;9.43;;;5.57;;
59273;SDS011;45044;41.572;24.730;2023-02-10T09:20:36;10.93;;;6.20;;
59273;SDS011;45044;41.572;24.730;2023-02-10T09:23:04;9.75;;;5.70;;
59273;SDS011;45044;41.572;24.730;2023-02-10T09:25:31;9.25;;;5.15;;
59273;SDS011;45044;41.572;24.730;2023-02-10T09:27:57;12.30;;;7.50;;
59273;SDS011;45044;41.572;24.730;2023-02-10T09:30:25;11.52;;;6.53;;
59273;SDS011;45044;41.572;24.730;2023-02-10T09:32:53;9.38;;;5.38;;
59273;SDS011;45044;41.572;24.730;2023-02-10T09:35:20;10.52;;;6.55;;
59273;SDS011;45044;41.572;24.730;2023-02-10T09:37:47;9.35;;;4.07;;
59273;SDS011;45044;41.572;24.730;2023-02-10T09:40:20;9.70;;;5.93;;
59273;SDS011;45044;41.572;24.730;2023-02-10T09:45:45;9.82;;;5.40;;
59273;SDS011;45044;41.572;24.730;2023-02-10T09:51:19;8.00;;;4.13;;
59273;SDS011;45044;41.572;24.730;2023-02-10T09:53:49;7.22;;;3.72;;
59273;SDS011;45044;41.572;24.730;2023-02-10T09:56:19;6.63;;;3.70;;
59273;SDS011;45044;41.572;24.730;2023-02-10T09:58:52;10.07;;;5.20;;
59273;SDS011;45044;41.572;24.730;2023-02-10T10:01:22;10.73;;;5.88;;
59273;SDS011;45044;41.572;24.730;2023-02-10T10:03:59;19.52;;;12.00;;
59273;SDS011;45044;41.572;24.730;2023-02-10T10:06:32;14.80;;;8.57;;
59273;SDS011;45044;41.572;24.730;2023-02-10T10:14:33;15.95;;;7.80;;
59273;SDS011;45044;41.572;24.730;2023-02-10T10:20:06;12.35;;;6.50;;
59273;SDS011;45044;41.572;24.730;2023-02-10T10:25:43;16.73;;;11.25;;
59273;SDS011;45044;41.572;24.730;2023-02-10T10:33:39;13.45;;;5.65;;
59273;SDS011;45044;41.572;24.730;2023-02-10T10:36:13;11.93;;;6.22;;
59273;SDS011;45044;41.572;24.730;2023-02-10T10:38:51;9.45;;;5.10;;
59273;SDS011;45044;41.572;24.730;2023-02-10T10:41:23;9.30;;;4.47;;
59273;SDS011;45044;41.572;24.730;2023-02-10T10:43:55;9.85;;;4.78;;
59273;SDS011;45044;41.572;24.730;2023-02-10T10:48:54;8.45;;;4.90;;
59273;SDS011;45044;41.572;24.730;2023-02-10T10:51:23;13.02;;;7.75;;
59273;SDS011;45044;41.572;24.730;2023-02-10T10:53:51;8.60;;;5.35;;
59273;SDS011;45044;41.572;24.730;2023-02-10T10:58:47;10.93;;;6.43;;
59273;SDS011;45044;41.572;24.730;2023-02-10T11:01:16;9.30;;;5.15;;
59273;SDS011;45044;41.572;24.730;2023-02-10T11:03:43;12.98;;;6.82;;
59273;SDS011;45044;41.572;24.730;2023-02-10T11:06:14;10.13;;;5.07;;
59273;SDS011;45044;41.572;24.730;2023-02-10T11:11:13;6.30;;;3.85;;
59273;SDS011;45044;41.572;24.730;2023-02-10T11:14:01;9.23;;;5.40;;
59273;SDS011;45044;41.572;24.730;2023-02-10T11:16:28;10.43;;;5.38;;
59273;SDS011;45044;41.572;24.730;2023-02-10T11:18:59;10.00;;;5.45;;
59273;SDS011;45044;41.572;24.730;2023-02-10T11:21:37;11.20;;;6.25;;
59273;SDS011;45044;41.572;24.730;2023-02-10T11:24:21;12.88;;;6.55;;
59273;SDS011;45044;41.572;24.730;2023-02-10T11:27:04;12.25;;;5.45;;
59273;SDS011;45044;41.572;24.730;2023-02-10T11:29:34;10.55;;;5.82;;
59273;SDS011;45044;41.572;24.730;2023-02-10T11:32:14;10.45;;;5.95;;
59273;SDS011;45044;41.572;24.730;2023-02-10T11:34:48;8.13;;;4.70;;
59273;SDS011;45044;41.572;24.730;2023-02-10T11:37:19;8.15;;;4.18;;
59273;SDS011;45044;41.572;24.730;2023-02-10T11:39:55;12.38;;;6.65;;
59273;SDS011;45044;41.572;24.730;2023-02-10T11:42:33;16.88;;;7.45;;
59273;SDS011;45044;41.572;24.730;2023-02-10T11:47:34;10.80;;;5.50;;
59273;SDS011;45044;41.572;24.730;2023-02-10T11:50:02;11.55;;;6.32;;
59273;SDS011;45044;41.572;24.730;2023-02-10T11:52:30;10.38;;;6.97;;
59273;SDS011;45044;41.572;24.730;2023-02-10T11:55:03;8.38;;;4.75;;
59273;SDS011;45044;41.572;24.730;2023-02-10T12:00:57;9.63;;;4.88;;
59273;SDS011;45044;41.572;24.730;2023-02-10T12:06:21;11.23;;;5.82;;
59273;SDS011;45044;41.572;24.730;2023-02-10T12:20:18;19.93;;;9.10;;
59273;SDS011;45044;41.572;24.730;2023-02-10T12:37:34;9.45;;;5.00;;
59273;SDS011;45044;41.572;24.730;2023-02-10T12:45:27;10.43;;;6.50;;
59273;SDS011;45044;41.572;24.730;2023-02-10T12:53:50;6.13;;;3.95;;
59273;SDS011;45044;41.572;24.730;2023-02-10T12:56:43;6.18;;;3.33;;
59273;SDS011;45044;41.572;24.730;2023-02-10T12:59:15;9.77;;;4.65;;
59273;SDS011;45044;41.572;24.730;2023-02-10T13:01:47;7.90;;;3.92;;
59273;SDS011;45044;41.572;24.730;2023-02-10T13:07:00;11.30;;;5.90;;
59273;SDS011;45044;41.572;24.730;2023-02-10T13:12:39;16.02;;;6.60;;
59273;SDS011;45044;41.572;24.730;2023-02-10T13:15:16;16.52;;;8.70;;
59273;SDS011;45044;41.572;24.730;2023-02-10T13:24:00;9.73;;;4.90;;
59273;SDS011;45044;41.572;24.730;2023-02-10T13:32:09;11.45;;;6.30;;
59273;SDS011;45044;41.572;24.730;2023-02-10T13:34:57;16.15;;;10.00;;
59273;SDS011;45044;41.572;24.730;2023-02-10T13:40:04;8.93;;;4.30;;
59273;SDS011;45044;41.572;24.730;2023-02-10T13:45:29;13.90;;;7.38;;
59273;SDS011;45044;41.572;24.730;2023-02-10T13:48:01;12.15;;;6.22;;
59273;SDS011;45044;41.572;24.730;2023-02-10T13:50:30;9.82;;;4.78;;
59273;SDS011;45044;41.572;24.730;2023-02-10T13:55:28;11.40;;;5.78;;
59273;SDS011;45044;41.572;24.730;2023-02-10T14:00:30;10.93;;;5.17;;
59273;SDS011;45044;41.572;24.730;2023-02-10T14:05:37;11.70;;;6.40;;
59273;SDS011;45044;41.572;24.730;2023-02-10T14:08:26;11.85;;;6.53;;
59273;SDS011;45044;41.572;24.730;2023-02-10T14:13:56;6.78;;;3.33;;
59273;SDS011;45044;41.572;24.730;2023-02-10T14:16:38;9.68;;;4.53;;
59273;SDS011;45044;41.572;24.730;2023-02-10T14:19:27;10.95;;;4.68;;
59273;SDS011;45044;41.572;24.730;2023-02-10T14:21:57;11.52;;;6.03;;
59273;SDS011;45044;41.572;24.730;2023-02-10T14:24:27;11.18;;;5.10;;
59273;SDS011;45044;41.572;24.730;2023-02-10T14:27:14;17.30;;;9.30;;
59273;SDS011;45044;41.572;24.730;2023-02-10T14:29:46;15.50;;;9.73;;
59273;SDS011;45044;41.572;24.730;2023-02-10T14:32:18;16.20;;;10.40;;
59273;SDS011;45044;41.572;24.730;2023-02-10T14:34:52;10.52;;;5.55;;
59273;SDS011;45044;41.572;24.730;2023-02-10T14:37:26;15.57;;;8.80;;
59273;SDS011;45044;41.572;24.730;2023-02-10T14:39:57;14.37;;;7.67;;
59273;SDS011;45044;41.572;24.730;2023-02-10T14:42:27;12.40;;;7.87;;
59273;SDS011;45044;41.572;24.730;2023-02-10T14:44:59;17.00;;;9.10;;
59273;SDS011;45044;41.572;24.730;2023-02-10T14:47:29;18.20;;;9.47;;
59273;SDS011;45044;41.572;24.730;2023-02-10T14:49:59;13.47;;;8.00;;
59273;SDS011;45044;41.572;24.730;2023-02-10T14:52:34;16.27;;;8.27;;
59273;SDS011;45044;41.572;24.730;2023-02-10T14:55:21;14.43;;;9.10;;
59273;SDS011;45044;41.572;24.730;2023-02-10T14:58:10;11.90;;;7.17;;
59273;SDS011;45044;41.572;24.730;2023-02-10T15:00:41;13.67;;;8.43;;
59273;SDS011;45044;41.572;24.730;2023-02-10T15:03:21;17.77;;;8.80;;
59273;SDS011;45044;41.572;24.730;2023-02-10T15:05:49;19.03;;;10.37;;
59273;SDS011;45044;41.572;24.730;2023-02-10T15:08:24;34.53;;;19.73;;
59273;SDS011;45044;41.572;24.730;2023-02-10T15:10:57;54.57;;;29.97;;
59273;SDS011;45044;41.572;24.730;2023-02-10T15:13:28;50.47;;;26.23;;
59273;SDS011;45044;41.572;24.730;2023-02-10T15:18:29;31.47;;;17.13;;
59273;SDS011;45044;41.572;24.730;2023-02-10T15:21:03;21.43;;;12.13;;
59273;SDS011;45044;41.572;24.730;2023-02-10T15:23:31;23.73;;;13.53;;
59273;SDS011;45044;41.572;24.730;2023-02-10T15:26:04;26.47;;;15.50;;
59273;SDS011;45044;41.572;24.730;2023-02-10T15:29:11;30.23;;;17.17;;
59273;SDS011;45044;41.572;24.730;2023-02-10T15:31:40;33.53;;;18.23;;
59273;SDS011;45044;41.572;24.730;2023-02-10T15:36:57;40.53;;;20.83;;
59273;SDS011;45044;41.572;24.730;2023-02-10T15:39:33;39.70;;;22.63;;
59273;SDS011;45044;41.572;24.730;2023-02-10T15:42:06;51.90;;;28.57;;
59273;SDS011;45044;41.572;24.730;2023-02-10T15:44:46;58.03;;;30.93;;
59273;SDS011;45044;41.572;24.730;2023-02-10T15:49:42;60.90;;;31.87;;
59273;SDS011;45044;41.572;24.730;2023-02-10T15:52:29;63.57;;;37.67;;
59273;SDS011;45044;41.572;24.730;2023-02-10T15:55:28;73.67;;;41.23;;
59273;SDS011;45044;41.572;24.730;2023-02-10T15:57:57;73.47;;;46.13;;
59273;SDS011;45044;41.572;24.730;2023-02-10T16:00:28;95.00;;;56.07;;
59273;SDS011;45044;41.572;24.730;2023-02-10T16:02:56;144.90;;;81.00;;
59273;SDS011;45044;41.572;24.730;2023-02-10T16:05:24;164.60;;;91.57;;
59273;SDS011;45044;41.572;24.730;2023-02-10T16:07:51;269.90;;;130.63;;
59273;SDS011;45044;41.572;24.730;2023-02-10T16:10:20;191.87;;;96.70;;
59273;SDS011;45044;41.572;24.730;2023-02-10T16:12:50;145.90;;;80.43;;
59273;SDS011;45044;41.572;24.730;2023-02-10T16:15:19;144.53;;;70.63;;
59273;SDS011;45044;41.572;24.730;2023-02-10T16:17:49;150.57;;;80.97;;
59273;SDS011;45044;41.572;24.730;2023-02-10T16:20:20;174.47;;;93.87;;
59273;SDS011;45044;41.572;24.730;2023-02-10T16:22:52;183.40;;;99.80;;
59273;SDS011;45044;41.572;24.730;2023-02-10T16:25:21;211.03;;;103.43;;
59273;SDS011;45044;41.572;24.730;2023-02-10T16:27:51;198.80;;;91.40;;
59273;SDS011;45044;41.572;24.730;2023-02-10T16:30:21;143.30;;;78.13;;
59273;SDS011;45044;41.572;24.730;2023-02-10T16:32:51;158.10;;;87.67;;
59273;SDS011;45044;41.572;24.730;2023-02-10T16:35:19;127.40;;;68.43;;
59273;SDS011;45044;41.572;24.730;2023-02-10T16:37:46;226.13;;;107.97;;
59273;SDS011;45044;41.572;24.730;2023-02-10T16:40:21;203.97;;;102.90;;
59273;SDS011;45044;41.572;24.730;2023-02-10T16:42:50;228.07;;;115.13;;
59273;SDS011;45044;41.572;24.730;2023-02-10T16:45:21;176.10;;;91.90;;
59273;SDS011;45044;41.572;24.730;2023-02-10T16:47:49;143.27;;;76.50;;
59273;SDS011;45044;41.572;24.730;2023-02-10T16:53:03;149.27;;;76.10;;
59273;SDS011;45044;41.572;24.730;2023-02-10T16:55:30;197.00;;;99.70;;
59273;SDS011;45044;41.572;24.730;2023-02-10T16:57:57;136.77;;;73.30;;
59273;SDS011;45044;41.572;24.730;2023-02-10T17:00:24;95.43;;;54.20;;